createdAt,value
2018-04-09T00:00:12.656Z,80.70
2018-04-09T00:02:41.090Z,81.10
2018-04-09T00:05:10.183Z,80.70
2018-04-09T00:07:38.498Z,80.70
2018-04-09T00:10:07.589Z,82.10
2018-04-09T00:12:35.875Z,81.50
2018-04-09T00:15:04.196Z,81.30
2018-04-09T00:17:32.523Z,80.50
2018-04-09T00:20:01.007Z,79.10
2018-04-09T00:22:29.310Z,79.40
2018-04-09T00:24:57.596Z,79.70
2018-04-09T00:27:26.101Z,81.40
2018-04-09T00:29:54.419Z,81.60
2018-04-09T00:32:22.698Z,81.70
2018-04-09T00:34:50.997Z,81.90
2018-04-09T00:37:19.315Z,81.10
2018-04-09T00:39:47.651Z,80.60
2018-04-09T00:42:17.471Z,79.90
2018-04-09T00:44:45.804Z,79.70
2018-04-09T00:47:14.960Z,81.20
2018-04-09T00:49:43.587Z,81.20
2018-04-09T00:52:11.951Z,81.50
2018-04-09T00:54:40.298Z,81.60
2018-04-09T00:57:08.606Z,82.30
2018-04-09T00:59:36.930Z,82.60
2018-04-09T01:02:05.218Z,83.00
2018-04-09T01:04:33.547Z,82.50
2018-04-09T01:07:02.630Z,83.40
2018-04-09T01:09:30.925Z,83.30
2018-04-09T01:11:59.548Z,83.70
2018-04-09T01:14:27.839Z,83.60
2018-04-09T01:16:56.155Z,83.00
2018-04-09T01:19:24.481Z,84.10
2018-04-09T01:21:53.666Z,87.30
2018-04-09T01:24:21.955Z,87.20
2018-04-09T01:26:50.271Z,86.90
2018-04-09T01:29:18.561Z,85.30
2018-04-09T01:31:46.878Z,85.80
2018-04-09T01:34:15.266Z,85.00
2018-04-09T01:36:43.587Z,83.40
2018-04-09T01:39:13.128Z,81.40
2018-04-09T01:41:41.559Z,81.20
2018-04-09T01:44:10.606Z,81.50
2018-04-09T01:46:39.079Z,81.60
2018-04-09T01:49:08.138Z,82.90
2018-04-09T01:51:37.406Z,82.90
2018-04-09T01:54:05.733Z,82.70
2018-04-09T01:56:34.815Z,84.70
2018-04-09T01:59:03.135Z,84.60
2018-04-09T02:01:31.431Z,84.70
2018-04-09T02:04:00.553Z,84.00
2018-04-09T02:06:29.015Z,84.00
2018-04-09T02:08:57.362Z,83.70
2018-04-09T02:11:25.687Z,81.80
2018-04-09T02:13:54.791Z,83.40
2018-04-09T02:16:23.274Z,83.40
2018-04-09T02:18:51.560Z,83.90
2018-04-09T02:21:20.819Z,84.60
2018-04-09T02:23:49.930Z,85.20
2018-04-09T02:26:18.249Z,85.50
2018-04-09T02:28:47.687Z,86.00
2018-04-09T02:31:16.059Z,86.00
2018-04-09T02:33:44.456Z,84.60
2018-04-09T02:36:12.798Z,83.20
2018-04-09T02:38:41.915Z,83.50
2018-04-09T02:41:11.303Z,83.70
2018-04-09T02:43:39.603Z,83.60
2018-04-09T02:46:08.905Z,85.50
2018-04-09T02:48:37.413Z,85.50
2018-04-09T02:51:05.739Z,85.60
2018-04-09T02:53:34.030Z,85.60
2018-04-09T02:56:02.699Z,85.70
2018-04-09T02:58:31.756Z,85.40
2018-04-09T03:01:00.049Z,85.30
2018-04-09T03:03:28.598Z,86.50
2018-04-09T03:05:56.892Z,86.30
2018-04-09T03:08:25.174Z,85.30
2018-04-09T03:10:53.502Z,85.20
2018-04-09T03:13:21.795Z,85.50
2018-04-09T03:15:50.299Z,85.50
2018-04-09T03:18:18.579Z,85.20
2018-04-09T03:20:46.898Z,84.90
2018-04-09T03:23:15.236Z,85.50
2018-04-09T03:25:44.318Z,85.80
2018-04-09T03:28:12.674Z,85.70
2018-04-09T03:30:41.060Z,85.90
2018-04-09T03:33:10.154Z,84.40
2018-04-09T03:35:38.561Z,84.30
2018-04-09T03:38:06.859Z,84.50
2018-04-09T03:40:35.222Z,84.80
2018-04-09T03:43:03.511Z,84.90
2018-04-09T03:45:31.845Z,84.80
2018-04-09T03:48:00.134Z,85.10
2018-04-09T03:50:28.755Z,85.20
2018-04-09T03:52:57.047Z,85.40
2018-04-09T03:55:25.330Z,85.70
2018-04-09T03:57:53.658Z,85.70
2018-04-09T04:00:21.979Z,85.30
2018-04-09T04:02:50.303Z,84.80
2018-04-09T04:05:18.635Z,86.40
2018-04-09T04:07:47.722Z,86.50
2018-04-09T04:10:16.013Z,86.50
2018-04-09T04:12:44.374Z,86.50
2018-04-09T04:15:12.706Z,87.80
2018-04-09T04:17:53.047Z,87.00
2018-04-09T04:20:33.235Z,86.70
2018-04-09T04:23:01.640Z,88.00
2018-04-09T04:25:29.961Z,86.80
2018-04-09T04:27:58.291Z,87.80
2018-04-09T04:30:27.515Z,88.80
2018-04-09T04:32:55.915Z,88.10
2018-04-09T04:35:24.223Z,88.20
2018-04-09T04:37:52.541Z,88.30
2018-04-09T04:40:20.876Z,88.50
2018-04-09T04:42:49.411Z,87.60
2018-04-09T04:45:17.839Z,88.10
2018-04-09T04:47:46.176Z,88.20
2018-04-09T04:50:15.234Z,87.90
2018-04-09T04:52:43.582Z,87.90
2018-04-09T04:55:11.974Z,87.90
2018-04-09T04:57:40.294Z,87.70
2018-04-09T05:00:09.392Z,88.00
2018-04-09T05:02:37.721Z,87.90
2018-04-09T05:05:06.787Z,88.00
2018-04-09T05:07:35.109Z,88.00
2018-04-09T05:10:03.434Z,88.00
2018-04-09T05:12:31.722Z,87.00
2018-04-09T05:15:00.021Z,87.00
2018-04-09T05:17:28.431Z,87.00
2018-04-09T05:19:56.723Z,87.20
2018-04-09T05:22:25.192Z,87.10
2018-04-09T05:24:53.495Z,86.50
2018-04-09T05:27:21.823Z,87.00
2018-04-09T05:29:50.120Z,85.80
2018-04-09T05:32:18.742Z,84.70
2018-04-09T05:34:47.029Z,84.40
2018-04-09T05:37:15.324Z,84.60
2018-04-09T05:39:43.650Z,83.50
2018-04-09T05:42:11.949Z,83.60
2018-04-09T05:44:40.300Z,82.30
2018-04-09T05:47:09.352Z,81.50
2018-04-09T05:49:37.643Z,82.10
2018-04-09T05:52:05.966Z,81.80
2018-04-09T05:54:34.264Z,82.20
2018-04-09T05:57:02.554Z,81.60
2018-04-09T05:59:31.193Z,81.20
2018-04-09T06:01:59.487Z,81.30
2018-04-09T06:04:27.780Z,81.10
2018-04-09T06:06:56.106Z,80.70
2018-04-09T06:09:24.390Z,80.40
2018-04-09T06:11:52.790Z,80.30
2018-04-09T06:14:21.115Z,80.10
2018-04-09T06:16:49.513Z,80.30
2018-04-09T06:19:17.914Z,79.90
2018-04-09T06:21:46.251Z,79.70
2018-04-09T06:24:15.346Z,78.40
2018-04-09T06:26:43.711Z,78.30
2018-04-09T06:29:12.767Z,77.50
2018-04-09T06:31:41.123Z,77.40
2018-04-09T06:34:09.458Z,76.40
2018-04-09T06:36:37.870Z,76.00
2018-04-09T06:39:06.202Z,76.00
2018-04-09T06:41:35.270Z,75.90
2018-04-09T06:44:03.598Z,75.80
2018-04-09T06:46:31.934Z,75.80
2018-04-09T06:49:01.025Z,74.70
2018-04-09T06:51:29.418Z,74.70
2018-04-09T06:53:57.731Z,73.90
2018-04-09T06:56:26.062Z,73.80
2018-04-09T06:58:55.344Z,72.70
2018-04-09T07:01:23.651Z,72.70
2018-04-09T07:03:51.949Z,72.00
2018-04-09T07:06:20.280Z,71.40
2018-04-09T07:08:48.603Z,70.70
2018-04-09T07:11:17.669Z,68.30
2018-04-09T07:13:45.993Z,68.20
2018-04-09T07:16:14.371Z,70.00
2018-04-09T07:18:42.895Z,68.90
2018-04-09T07:21:11.196Z,69.50
2018-04-09T07:23:39.491Z,68.80
2018-04-09T07:26:08.591Z,66.60
2018-04-09T07:28:36.882Z,66.50
2018-04-09T07:31:05.222Z,66.80
2018-04-09T07:33:33.523Z,67.00
2018-04-09T07:36:01.836Z,66.40
2018-04-09T07:38:30.161Z,65.80
2018-04-09T07:40:59.243Z,65.70
2018-04-09T07:43:27.853Z,65.60
2018-04-09T07:45:56.154Z,65.40
2018-04-09T07:48:24.555Z,63.90
2018-04-09T07:50:52.875Z,64.00
2018-04-09T07:53:21.312Z,63.00
2018-04-09T07:55:50.367Z,61.90
2018-04-09T07:58:18.682Z,61.90
2018-04-09T08:00:47.195Z,62.60
2018-04-09T08:03:15.483Z,61.20
2018-04-09T08:05:43.765Z,60.90
2018-04-09T08:08:12.420Z,61.40
2018-04-09T08:10:40.731Z,60.00
2018-04-09T08:13:09.840Z,59.90
2018-04-09T08:15:38.171Z,59.90
2018-04-09T08:18:07.249Z,59.00
2018-04-09T08:20:35.530Z,58.90
2018-04-09T08:23:03.846Z,58.70
2018-04-09T08:25:32.250Z,58.90
2018-04-09T08:28:00.539Z,58.60
2018-04-09T08:30:28.836Z,59.80
2018-04-09T08:32:57.159Z,58.20
2018-04-09T08:35:25.451Z,57.70
2018-04-09T08:37:53.765Z,56.00
2018-04-09T08:40:22.266Z,57.60
2018-04-09T08:42:50.554Z,57.80
2018-04-09T08:45:18.869Z,56.10
2018-04-09T08:47:47.298Z,55.50
2018-04-09T08:50:15.591Z,54.60
2018-04-09T08:52:43.882Z,54.90
2018-04-09T08:55:12.394Z,54.60
2018-04-09T08:57:40.683Z,54.40
2018-04-09T09:00:08.984Z,53.40
2018-04-09T09:02:37.311Z,53.10
2018-04-09T09:05:05.607Z,53.20
2018-04-09T09:07:33.931Z,53.30
2018-04-09T09:10:02.981Z,52.40
2018-04-09T09:12:31.314Z,52.30
2018-04-09T09:14:59.621Z,52.90
2018-04-09T09:17:27.943Z,53.50
2018-04-09T09:19:56.257Z,53.90
2018-04-09T09:22:25.352Z,51.70
2018-04-09T09:24:53.719Z,51.60
2018-04-09T09:27:22.038Z,51.60
2018-04-09T09:29:50.318Z,51.70
2018-04-09T09:32:18.603Z,51.20
2018-04-09T09:34:47.703Z,50.70
2018-04-09T09:37:15.992Z,50.70
2018-04-09T09:39:44.324Z,48.90
2018-04-09T09:42:12.672Z,49.00
2018-04-09T09:44:41.016Z,49.80
2018-04-09T09:47:09.323Z,47.70
2018-04-09T09:49:38.379Z,47.40
2018-04-09T09:52:06.666Z,47.40
2018-04-09T09:54:34.982Z,47.90
2018-04-09T09:57:03.295Z,47.20
2018-04-09T09:59:31.628Z,46.80
2018-04-09T10:02:14.843Z,46.60
2018-04-09T10:04:43.162Z,46.40
2018-04-09T10:07:11.508Z,47.30
2018-04-09T10:09:40.603Z,46.90
2018-04-09T10:12:10.399Z,46.10
2018-04-09T10:14:38.723Z,46.10
2018-04-09T10:17:07.048Z,46.20
2018-04-09T10:19:35.362Z,47.00
2018-04-09T10:22:03.678Z,46.30
2018-04-09T10:24:32.761Z,46.50
2018-04-09T10:27:01.053Z,46.50
2018-04-09T10:29:29.382Z,45.60
2018-04-09T10:31:57.682Z,45.20
2018-04-09T10:34:26.039Z,45.30
2018-04-09T10:36:54.306Z,45.80
2018-04-09T10:39:23.362Z,45.40
2018-04-09T10:41:51.691Z,45.40
2018-04-09T10:44:19.983Z,45.80
2018-04-09T10:46:48.302Z,46.60
2018-04-09T10:49:16.644Z,45.60
2018-04-09T10:51:45.734Z,44.50
2018-04-09T10:54:14.063Z,44.40
2018-04-09T10:56:43.113Z,45.00
2018-04-09T10:59:11.711Z,45.00
2018-04-09T11:01:39.999Z,44.50
2018-04-09T11:04:08.362Z,43.80
2018-04-09T11:06:36.635Z,43.40
2018-04-09T11:09:05.864Z,43.30
2018-04-09T11:11:34.185Z,43.30
2018-04-09T11:14:02.515Z,43.50
2018-04-09T11:16:31.570Z,43.70
2018-04-09T11:18:59.889Z,43.60
2018-04-09T11:21:28.181Z,43.00
2018-04-09T11:23:56.470Z,44.00
2018-04-09T11:26:24.803Z,45.10
2018-04-09T11:28:53.175Z,46.50
2018-04-09T11:31:21.475Z,44.60
2018-04-09T11:33:49.789Z,41.70
2018-04-09T11:36:18.087Z,43.50
2018-04-09T11:38:46.421Z,43.60
2018-04-09T11:41:14.713Z,44.60
2018-04-09T11:43:43.058Z,44.00
2018-04-09T11:46:12.178Z,44.50
2018-04-09T11:48:40.468Z,44.50
2018-04-09T11:51:09.060Z,45.50
2018-04-09T11:53:37.353Z,44.80
2018-04-09T11:56:05.751Z,44.10
2018-04-09T11:58:34.066Z,44.20
2018-04-09T12:01:02.396Z,45.10
2018-04-09T12:03:31.448Z,45.20
2018-04-09T12:05:59.744Z,45.20
2018-04-09T12:08:28.073Z,43.90
2018-04-09T12:10:56.357Z,43.20
2018-04-09T12:13:24.676Z,44.00
2018-04-09T12:15:52.985Z,43.90
2018-04-09T12:18:21.299Z,43.10
2018-04-09T12:20:49.616Z,40.20
2018-04-09T12:23:17.908Z,42.00
2018-04-09T12:25:46.508Z,40.80
2018-04-09T12:28:14.912Z,41.90
2018-04-09T12:30:43.210Z,41.60
2018-04-09T12:33:11.545Z,41.30
2018-04-09T12:35:39.837Z,42.30
2018-04-09T12:38:08.148Z,41.10
2018-04-09T12:40:36.429Z,40.90
2018-04-09T12:43:04.713Z,42.10
2018-04-09T12:45:33.180Z,42.50
2018-04-09T12:48:02.237Z,42.10
2018-04-09T12:50:30.526Z,42.00
2018-04-09T12:52:58.844Z,42.60
2018-04-09T12:55:27.169Z,43.30
2018-04-09T12:57:55.492Z,44.30
2018-04-09T13:00:24.548Z,43.20
2018-04-09T13:02:52.868Z,43.10
2018-04-09T13:05:21.161Z,43.60
2018-04-09T13:07:49.584Z,44.10
2018-04-09T13:10:17.877Z,43.90
2018-04-09T13:12:46.199Z,44.40
2018-04-09T13:15:14.507Z,42.50
2018-04-09T13:17:42.797Z,42.30
2018-04-09T13:20:11.163Z,41.20
2018-04-09T13:22:39.448Z,42.30
2018-04-09T13:25:08.000Z,41.50
2018-04-09T13:27:36.292Z,43.20
2018-04-09T13:30:04.586Z,43.70
2018-04-09T13:32:32.914Z,44.00
2018-04-09T13:35:01.205Z,43.70
2018-04-09T13:37:29.535Z,44.70
2018-04-09T13:39:57.893Z,43.50
2018-04-09T13:42:26.220Z,43.80
2018-04-09T13:44:54.548Z,43.50
2018-04-09T13:47:22.837Z,42.80
2018-04-09T13:49:51.172Z,41.60
2018-04-09T13:52:19.506Z,41.50
2018-04-09T13:54:47.801Z,43.50
2018-04-09T13:57:16.097Z,42.90
2018-04-09T13:59:44.441Z,43.40
2018-04-09T14:02:12.755Z,42.80
2018-04-09T14:04:41.060Z,43.10
2018-04-09T14:07:09.388Z,43.70
2018-04-09T14:09:37.711Z,42.30
2018-04-09T14:12:05.996Z,43.30
2018-04-09T14:14:34.320Z,42.80
2018-04-09T14:17:02.608Z,42.90
2018-04-09T14:19:30.897Z,42.00
2018-04-09T14:21:59.980Z,42.20
2018-04-09T14:24:28.276Z,42.20
2018-04-09T14:26:56.872Z,41.20
2018-04-09T14:29:25.161Z,40.20
2018-04-09T14:31:53.484Z,40.50
2018-04-09T14:34:21.797Z,41.30
2018-04-09T14:36:50.080Z,41.40
2018-04-09T14:39:18.406Z,40.90
2018-04-09T14:41:46.688Z,40.40
2018-04-09T14:44:14.978Z,40.40
2018-04-09T14:46:43.308Z,39.90
2018-04-09T14:49:12.010Z,40.10
2018-04-09T14:51:40.287Z,39.10
2018-04-09T14:54:08.568Z,38.70
2018-04-09T14:56:36.892Z,38.90
2018-04-09T14:59:05.182Z,38.90
2018-04-09T15:01:33.509Z,38.30
2018-04-09T15:04:01.792Z,38.30
2018-04-09T15:06:30.079Z,39.20
2018-04-09T15:08:58.384Z,38.80
2018-04-09T15:11:26.666Z,39.50
2018-04-09T15:13:55.744Z,38.80
2018-04-09T15:16:24.025Z,38.80
2018-04-09T15:18:52.308Z,38.80
2018-04-09T15:21:20.739Z,38.40
2018-04-09T15:23:49.011Z,38.60
2018-04-09T15:26:17.322Z,38.50
2018-04-09T15:28:45.764Z,38.10
2018-04-09T15:31:14.056Z,39.20
2018-04-09T15:33:42.348Z,40.20
2018-04-09T15:36:10.660Z,40.00
2018-04-09T15:38:38.978Z,40.90
2018-04-09T15:41:07.288Z,40.00
2018-04-09T15:43:35.661Z,39.20
2018-04-09T15:46:04.059Z,38.70
2018-04-09T15:48:32.382Z,37.60
2018-04-09T15:51:01.185Z,38.30
2018-04-09T15:53:29.465Z,40.10
2018-04-09T15:55:57.751Z,40.90
2018-04-09T15:58:26.056Z,41.40
2018-04-09T16:00:54.377Z,41.80
2018-04-09T16:03:22.662Z,41.70
2018-04-09T16:05:50.976Z,40.80
2018-04-09T16:08:19.259Z,40.20
2018-04-09T16:10:47.551Z,40.20
2018-04-09T16:13:16.628Z,41.30
2018-04-09T16:15:45.612Z,41.30
2018-04-09T16:18:13.926Z,41.40
2018-04-09T16:20:42.457Z,41.80
2018-04-09T16:23:10.749Z,41.70
2018-04-09T16:25:39.031Z,42.20
2018-04-09T16:28:07.369Z,42.90
2018-04-09T16:30:35.656Z,43.50
2018-04-09T16:33:04.032Z,44.00
2018-04-09T16:35:32.326Z,44.90
2018-04-09T16:38:00.610Z,44.50
2018-04-09T16:40:28.948Z,45.20
2018-04-09T16:42:57.233Z,45.20
2018-04-09T16:45:25.512Z,45.70
2018-04-09T16:47:54.600Z,46.40
2018-04-09T16:50:24.672Z,46.80
2018-04-09T16:52:53.764Z,46.80
2018-04-09T16:55:22.057Z,46.80
2018-04-09T16:57:50.368Z,47.50
2018-04-09T17:00:18.656Z,48.40
2018-04-09T17:02:46.939Z,49.90
2018-04-09T17:05:15.260Z,50.80
2018-04-09T17:07:43.592Z,49.80
2018-04-09T17:10:12.755Z,51.30
2018-04-09T17:12:41.049Z,51.30
2018-04-09T17:15:09.364Z,51.60
2018-04-09T17:17:37.684Z,51.70
2018-04-09T17:20:05.969Z,52.10
2018-04-09T17:22:34.298Z,52.70
2018-04-09T17:25:02.572Z,51.90
2018-04-09T17:27:30.860Z,52.10
2018-04-09T17:29:59.421Z,52.10
2018-04-09T17:32:27.708Z,53.10
2018-04-09T17:34:55.988Z,53.10
2018-04-09T17:37:24.368Z,53.50
2018-04-09T17:39:52.648Z,54.00
2018-04-09T17:42:21.737Z,53.90
2018-04-09T17:44:50.020Z,53.90
2018-04-09T17:47:18.355Z,54.30
2018-04-09T17:49:46.637Z,54.80
2018-04-09T17:52:14.973Z,55.80
2018-04-09T17:54:44.055Z,58.20
2018-04-09T17:57:12.368Z,58.00
2018-04-09T17:59:40.700Z,58.70
2018-04-09T18:02:09.927Z,58.60
2018-04-09T18:04:38.982Z,58.40
2018-04-09T18:07:07.264Z,58.30
2018-04-09T18:09:35.625Z,59.10
2018-04-09T18:12:05.453Z,58.40
2018-04-09T18:14:35.251Z,58.00
2018-04-09T18:17:03.535Z,57.90
2018-04-09T18:19:32.088Z,58.30
2018-04-09T18:22:00.479Z,57.80
2018-04-09T18:24:28.764Z,57.00
2018-04-09T18:26:57.097Z,58.60
2018-04-09T18:29:25.488Z,59.40
2018-04-09T18:31:53.796Z,60.60
2018-04-09T18:34:22.201Z,61.00
2018-04-09T18:36:50.533Z,61.80
2018-04-09T18:39:18.908Z,62.40
2018-04-09T18:41:47.201Z,61.70
2018-04-09T18:44:15.528Z,62.10
2018-04-09T18:46:44.645Z,62.90
2018-04-09T18:49:12.984Z,62.20
2018-04-09T18:51:42.161Z,63.00
2018-04-09T18:54:10.463Z,63.00
2018-04-09T18:56:38.740Z,62.60
2018-04-09T18:59:07.649Z,63.10
2018-04-09T19:01:36.130Z,64.10
2018-04-09T19:04:05.175Z,64.50
2018-04-09T19:06:33.596Z,64.40
2018-04-09T19:09:01.948Z,64.90
2018-04-09T19:11:31.332Z,66.10
2018-04-09T19:13:59.625Z,66.00
2018-04-09T19:16:27.948Z,66.70
2018-04-09T19:18:56.344Z,66.70
2018-04-09T19:21:24.632Z,65.80
2018-04-09T19:23:52.953Z,66.60
2018-04-09T19:26:21.244Z,66.70
2018-04-09T19:28:49.573Z,66.20
2018-04-09T19:31:18.652Z,64.90
2018-04-09T19:33:46.942Z,64.90
2018-04-09T19:36:20.999Z,66.90
2018-04-09T19:38:54.996Z,64.10
2018-04-09T19:41:24.035Z,64.70
2018-04-09T19:43:52.330Z,64.70
2018-04-09T19:46:20.653Z,65.90
2018-04-09T19:48:49.176Z,65.80
2018-04-09T19:51:17.469Z,66.70
2018-04-09T19:53:45.764Z,66.70
2018-04-09T19:56:14.188Z,65.00
2018-04-09T19:58:42.704Z,66.10
2018-04-09T20:01:12.529Z,66.30
2018-04-09T20:03:40.824Z,66.30
2018-04-09T20:06:09.227Z,65.90
2018-04-09T20:08:37.533Z,65.80
2018-04-09T20:11:05.967Z,66.00
2018-04-09T20:13:34.257Z,66.40
2018-04-09T20:16:02.653Z,65.90
2018-04-09T20:18:30.985Z,66.10
2018-04-09T20:21:00.040Z,66.60
2018-04-09T20:23:28.476Z,66.60
2018-04-09T20:25:56.781Z,67.00
2018-04-09T20:28:25.080Z,67.10
2018-04-09T20:30:53.414Z,66.40
2018-04-09T20:33:22.506Z,66.90
2018-04-09T20:35:50.836Z,66.70
2018-04-09T20:38:19.927Z,68.40
2018-04-09T20:40:48.224Z,67.70
2018-04-09T20:43:16.550Z,69.20
2018-04-09T20:45:46.384Z,69.60
2018-04-09T20:48:14.780Z,69.60
2018-04-09T20:50:43.085Z,69.90
2018-04-09T20:53:11.472Z,69.70
2018-04-09T20:55:39.792Z,69.50
2018-04-09T20:58:08.330Z,69.30
2018-04-09T21:00:37.409Z,69.90
2018-04-09T21:03:05.808Z,69.80
2018-04-09T21:05:34.218Z,70.00
2018-04-09T21:08:02.521Z,70.00
2018-04-09T21:10:31.029Z,70.30
2018-04-09T21:12:59.464Z,70.10
2018-04-09T21:15:28.569Z,70.50
2018-04-09T21:17:56.897Z,70.40
2018-04-09T21:20:25.183Z,70.70
2018-04-09T21:22:54.584Z,71.30
2018-04-09T21:25:22.989Z,71.30
2018-04-09T21:27:51.272Z,71.70
2018-04-09T21:30:19.602Z,71.50
2018-04-09T21:32:48.196Z,72.00
2018-04-09T21:35:16.509Z,72.50
2018-04-09T21:37:44.805Z,72.80
2018-04-09T21:40:13.140Z,72.60
2018-04-09T21:42:42.534Z,72.80
2018-04-09T21:45:10.928Z,72.70
2018-04-09T21:47:39.216Z,72.90
2018-04-09T21:50:07.544Z,72.70
2018-04-09T21:52:36.294Z,72.50
2018-04-09T21:55:05.385Z,72.40
2018-04-09T21:57:35.185Z,72.80
2018-04-09T22:00:03.508Z,72.70
2018-04-09T22:02:31.903Z,73.30
2018-04-09T22:05:00.318Z,73.20
2018-04-09T22:07:28.668Z,73.40
2018-04-09T22:09:57.720Z,73.90
2018-04-09T22:12:26.248Z,73.90
2018-04-09T22:14:54.550Z,74.00
2018-04-09T22:17:22.947Z,74.30
2018-04-09T22:19:51.320Z,74.70
2018-04-09T22:22:19.663Z,74.50
2018-04-09T22:24:47.955Z,74.50
2018-04-09T22:27:16.365Z,73.30
2018-04-09T22:29:44.669Z,73.10
2018-04-09T22:32:13.007Z,73.20
2018-04-09T22:34:42.091Z,72.50
2018-04-09T22:37:10.412Z,72.50
2018-04-09T22:39:39.476Z,72.60
2018-04-09T22:42:07.805Z,73.10
2018-04-09T22:44:36.219Z,73.40
2018-04-09T22:47:04.724Z,73.90
2018-04-09T22:49:33.020Z,74.70
2018-04-09T22:52:01.317Z,74.60
2018-04-09T22:54:29.652Z,74.80
2018-04-09T22:56:58.712Z,75.60
2018-04-09T22:59:27.046Z,75.90
2018-04-09T23:01:55.348Z,75.50
2018-04-09T23:04:23.762Z,75.50
2018-04-09T23:06:52.056Z,75.80
2018-04-09T23:09:20.385Z,76.20
2018-04-09T23:11:48.777Z,76.40
2018-04-09T23:14:17.063Z,76.20
2018-04-09T23:16:45.396Z,76.10
2018-04-09T23:19:14.015Z,76.90
2018-04-09T23:21:43.081Z,77.60
2018-04-09T23:24:11.409Z,77.60
2018-04-09T23:26:39.748Z,77.00
2018-04-09T23:29:08.044Z,76.50
2018-04-09T23:31:37.264Z,76.20
2018-04-09T23:34:05.536Z,76.20
2018-04-09T23:36:33.874Z,76.40
2018-04-09T23:39:02.248Z,76.90
2018-04-09T23:41:30.641Z,77.40
2018-04-09T23:43:58.943Z,77.40
2018-04-09T23:46:27.348Z,77.80
2018-04-09T23:48:55.680Z,78.10
2018-04-09T23:51:24.739Z,78.70
2018-04-09T23:53:53.282Z,78.60
2018-04-09T23:56:21.580Z,79.00
2018-04-09T23:58:49.877Z,79.10
